createdAt,value
2023-03-11T00:00:41.284Z,1.00
2023-03-11T00:02:44.180Z,1.10
2023-03-11T00:04:46.776Z,0.88
2023-03-11T00:06:49.355Z,0.93
2023-03-11T00:08:52.331Z,0.85
2023-03-11T00:10:58.743Z,1.00
2023-03-11T00:13:02.029Z,0.88
2023-03-11T00:15:04.985Z,1.00
2023-03-11T00:17:07.582Z,1.05
2023-03-11T00:19:11.406Z,0.80
2023-03-11T00:21:17.213Z,1.05
2023-03-11T00:23:20.211Z,0.98
2023-03-11T00:25:25.275Z,0.90
2023-03-11T00:27:29.252Z,1.00
2023-03-11T00:29:31.816Z,0.88
2023-03-11T00:31:34.351Z,0.77
2023-03-11T00:33:36.924Z,1.10
2023-03-11T00:35:39.581Z,0.80
2023-03-11T00:37:42.612Z,0.90
2023-03-11T00:39:45.163Z,1.10
2023-03-11T00:41:47.749Z,1.00
2023-03-11T00:43:51.993Z,0.90
2023-03-11T00:45:54.585Z,0.93
2023-03-11T00:47:57.411Z,0.80
2023-03-11T00:50:00.062Z,0.90
2023-03-11T00:52:02.604Z,1.45
2023-03-11T00:54:05.282Z,1.15
2023-03-11T00:56:08.838Z,1.00
2023-03-11T00:58:12.407Z,1.20
2023-03-11T01:00:18.276Z,1.25
2023-03-11T01:02:20.836Z,1.13
2023-03-11T01:04:23.486Z,1.05
2023-03-11T01:06:30.140Z,1.17
2023-03-11T01:08:38.893Z,1.00
2023-03-11T01:10:41.445Z,1.02
2023-03-11T01:12:44.374Z,1.02
2023-03-11T01:14:46.955Z,1.40
2023-03-11T01:16:50.882Z,1.10
2023-03-11T01:18:53.467Z,1.30
2023-03-11T01:20:56.163Z,1.50
2023-03-11T01:22:58.773Z,1.20
2023-03-11T01:25:01.322Z,1.30
2023-03-11T01:27:03.895Z,1.10
2023-03-11T01:29:06.538Z,1.30
2023-03-11T01:31:10.267Z,1.40
2023-03-11T01:33:18.326Z,1.50
2023-03-11T01:35:23.603Z,1.38
2023-03-11T01:37:26.571Z,1.08
2023-03-11T01:39:29.147Z,1.23
2023-03-11T01:41:31.727Z,1.38
2023-03-11T01:43:54.508Z,1.35
2023-03-11T01:46:13.476Z,1.30
2023-03-11T01:48:17.448Z,1.50
2023-03-11T01:50:20.172Z,1.27
2023-03-11T01:52:22.762Z,1.52
2023-03-11T01:54:28.032Z,1.42
2023-03-11T01:56:31.790Z,1.35
2023-03-11T01:58:38.850Z,1.50
2023-03-11T02:00:43.691Z,1.85
2023-03-11T02:02:50.398Z,1.40
2023-03-11T02:04:55.721Z,1.20
2023-03-11T02:06:58.528Z,1.50
2023-03-11T02:09:01.868Z,1.65
2023-03-11T02:11:06.810Z,1.52
2023-03-11T02:13:10.613Z,1.80
2023-03-11T02:15:14.289Z,1.40
2023-03-11T02:17:17.325Z,1.50
2023-03-11T02:19:27.814Z,1.70
2023-03-11T02:21:36.228Z,1.42
2023-03-11T02:27:04.141Z,1.20
2023-03-11T02:29:10.463Z,1.55
2023-03-11T02:31:15.272Z,1.60
2023-03-11T02:33:19.695Z,1.70
2023-03-11T02:35:22.344Z,1.52
2023-03-11T02:37:24.898Z,1.42
2023-03-11T02:39:32.310Z,1.35
2023-03-11T02:41:38.462Z,1.48
2023-03-11T02:43:46.064Z,1.23
2023-03-11T02:45:50.416Z,1.10
2023-03-11T02:47:55.567Z,1.58
2023-03-11T02:49:58.131Z,1.40
2023-03-11T02:52:00.689Z,1.55
2023-03-11T02:54:05.731Z,1.50
2023-03-11T02:56:08.331Z,1.55
2023-03-11T02:58:11.075Z,1.17
2023-03-11T03:00:17.459Z,1.20
2023-03-11T03:02:20.084Z,1.50
2023-03-11T03:04:22.703Z,1.20
2023-03-11T03:06:26.300Z,1.30
2023-03-11T03:08:28.896Z,1.20
2023-03-11T03:10:31.763Z,1.40
2023-03-11T03:12:34.319Z,1.13
2023-03-11T03:14:37.618Z,1.30
2023-03-11T03:16:41.629Z,1.25
2023-03-11T03:18:44.293Z,1.25
2023-03-11T03:20:46.896Z,1.15
2023-03-11T03:22:50.027Z,1.35
2023-03-11T03:24:52.866Z,1.42
2023-03-11T03:26:55.440Z,1.63
2023-03-11T03:28:57.959Z,1.20
2023-03-11T03:31:05.105Z,1.27
2023-03-11T03:33:09.753Z,1.30
2023-03-11T03:35:12.336Z,1.50
2023-03-11T03:37:14.905Z,1.42
2023-03-11T03:39:18.643Z,1.20
2023-03-11T03:41:21.193Z,1.35
2023-03-11T03:43:23.720Z,1.65
2023-03-11T03:45:26.299Z,1.27
2023-03-11T03:47:28.860Z,1.00
2023-03-11T03:49:32.739Z,1.52
2023-03-11T03:51:35.517Z,1.08
2023-03-11T03:53:38.572Z,1.30
2023-03-11T03:55:41.145Z,1.30
2023-03-11T03:57:43.680Z,1.30
2023-03-11T03:59:46.222Z,1.17
2023-03-11T04:01:48.984Z,1.20
2023-03-11T04:03:51.599Z,1.20
2023-03-11T04:05:55.491Z,1.42
2023-03-11T04:07:58.015Z,1.40
2023-03-11T04:10:00.566Z,1.25
2023-03-11T04:12:03.109Z,1.20
2023-03-11T04:14:07.232Z,1.50
2023-03-11T04:16:11.285Z,1.00
2023-03-11T04:18:13.909Z,1.20
2023-03-11T04:20:16.676Z,1.30
2023-03-11T04:22:20.536Z,1.42
2023-03-11T04:24:23.086Z,1.35
2023-03-11T04:26:25.649Z,1.20
2023-03-11T04:28:28.412Z,1.65
2023-03-11T04:30:31.024Z,1.20
2023-03-11T04:32:33.669Z,1.13
2023-03-11T04:34:36.337Z,1.40
2023-03-11T04:36:42.126Z,1.10
2023-03-11T04:38:46.705Z,1.60
2023-03-11T04:40:49.290Z,1.20
2023-03-11T04:42:51.880Z,1.65
2023-03-11T04:44:54.468Z,1.20
2023-03-11T04:46:57.028Z,1.50
2023-03-11T04:48:59.553Z,1.38
2023-03-11T04:51:02.163Z,1.38
2023-03-11T04:53:04.758Z,1.23
2023-03-11T04:55:10.211Z,1.63
2023-03-11T04:57:12.885Z,1.58
2023-03-11T04:59:15.418Z,0.98
2023-03-11T05:01:18.090Z,1.17
2023-03-11T05:03:20.901Z,1.10
2023-03-11T05:05:23.873Z,1.40
2023-03-11T05:07:26.419Z,1.70
2023-03-11T05:09:28.972Z,1.88
2023-03-11T05:11:32.858Z,1.38
2023-03-11T05:13:35.760Z,1.40
2023-03-11T05:15:38.398Z,1.38
2023-03-11T05:17:40.991Z,1.30
2023-03-11T05:19:43.546Z,1.10
2023-03-11T05:21:46.086Z,1.20
2023-03-11T05:23:48.694Z,1.20
2023-03-11T05:25:51.297Z,0.90
2023-03-11T05:27:55.227Z,1.40
2023-03-11T05:29:57.993Z,1.42
2023-03-11T05:32:00.544Z,1.15
2023-03-11T05:34:03.085Z,1.85
2023-03-11T05:36:08.235Z,1.48
2023-03-11T05:38:10.760Z,1.38
2023-03-11T05:40:13.767Z,1.05
2023-03-11T05:42:16.362Z,1.50
2023-03-11T05:44:20.306Z,1.60
2023-03-11T05:46:22.877Z,1.58
2023-03-11T05:48:25.582Z,1.30
2023-03-11T05:50:28.293Z,1.75
2023-03-11T05:52:32.953Z,1.80
2023-03-11T05:54:35.514Z,1.55
2023-03-11T05:56:38.376Z,1.30
2023-03-11T05:58:40.940Z,1.40
2023-03-11T06:00:44.827Z,1.60
2023-03-11T06:02:47.381Z,1.27
2023-03-11T06:04:50.275Z,1.50
2023-03-11T06:06:52.960Z,1.75
2023-03-11T06:08:55.922Z,1.80
2023-03-11T06:11:02.895Z,1.80
2023-03-11T06:13:05.640Z,1.63
2023-03-11T06:15:09.397Z,1.50
2023-03-11T06:17:13.326Z,1.70
2023-03-11T06:19:15.933Z,1.58
2023-03-11T06:21:20.843Z,1.70
2023-03-11T06:23:23.376Z,1.98
2023-03-11T06:25:25.957Z,1.42
2023-03-11T06:27:28.552Z,2.40
2023-03-11T06:29:31.114Z,2.13
2023-03-11T06:31:33.803Z,1.90
2023-03-11T06:33:39.019Z,1.67
2023-03-11T06:35:41.791Z,2.10
2023-03-11T06:37:44.353Z,2.00
2023-03-11T06:39:46.884Z,1.70
2023-03-11T06:41:49.451Z,2.03
2023-03-11T06:43:52.331Z,2.17
2023-03-11T06:45:54.933Z,1.90
2023-03-11T06:47:57.517Z,2.05
2023-03-11T06:50:06.099Z,2.20
2023-03-11T06:52:08.939Z,2.78
2023-03-11T06:54:11.527Z,2.97
2023-03-11T06:56:15.008Z,2.90
2023-03-11T06:58:17.539Z,2.70
2023-03-11T07:00:20.487Z,2.00
2023-03-11T07:02:23.031Z,2.20
2023-03-11T07:04:25.741Z,2.50
2023-03-11T07:06:30.021Z,2.00
2023-03-11T07:08:32.776Z,2.00
2023-03-11T07:10:35.644Z,2.28
2023-03-11T07:12:38.203Z,1.77
2023-03-11T07:14:40.737Z,2.03
2023-03-11T07:16:43.360Z,2.10
2023-03-11T07:18:47.831Z,1.73
2023-03-11T07:20:50.388Z,2.25
2023-03-11T07:22:54.500Z,2.00
2023-03-11T07:24:57.054Z,1.80
2023-03-11T07:26:59.617Z,2.25
2023-03-11T07:29:03.080Z,1.70
2023-03-11T07:31:10.230Z,1.70
2023-03-11T07:33:13.111Z,1.60
2023-03-11T07:35:15.648Z,1.42
2023-03-11T07:37:18.170Z,1.25
2023-03-11T07:39:22.086Z,1.70
2023-03-11T07:41:24.889Z,1.50
2023-03-11T07:43:29.342Z,2.13
2023-03-11T07:45:31.917Z,1.90
2023-03-11T07:47:34.525Z,1.27
2023-03-11T07:49:37.150Z,1.55
2023-03-11T07:51:42.420Z,1.40
2023-03-11T07:53:45.191Z,1.58
2023-03-11T07:55:49.106Z,1.40
2023-03-11T07:57:51.732Z,1.50
2023-03-11T07:59:54.308Z,1.75
2023-03-11T08:01:57.044Z,2.22
2023-03-11T08:03:59.674Z,1.65
2023-03-11T08:06:02.752Z,1.60
2023-03-11T08:08:05.447Z,1.63
2023-03-11T08:10:08.466Z,1.42
2023-03-11T08:12:15.086Z,1.52
2023-03-11T08:14:17.810Z,1.95
2023-03-11T08:16:22.335Z,1.77
2023-03-11T08:18:24.865Z,1.40
2023-03-11T08:20:27.497Z,1.35
2023-03-11T08:22:30.510Z,1.17
2023-03-11T08:24:33.111Z,1.35
2023-03-11T08:26:35.733Z,1.52
2023-03-11T08:28:39.884Z,1.77
2023-03-11T08:30:42.660Z,2.20
2023-03-11T08:32:45.385Z,1.55
2023-03-11T08:34:47.951Z,1.33
2023-03-11T08:36:50.536Z,1.30
2023-03-11T08:38:53.463Z,1.92
2023-03-11T08:40:56.022Z,1.40
2023-03-11T08:42:58.609Z,1.50
2023-03-11T08:45:02.484Z,1.95
2023-03-11T08:47:05.057Z,1.75
2023-03-11T08:49:07.866Z,1.13
2023-03-11T08:51:11.575Z,1.58
2023-03-11T08:53:14.128Z,1.92
2023-03-11T08:55:25.023Z,1.40
2023-03-11T08:57:27.578Z,1.53
2023-03-11T08:59:30.307Z,1.30
2023-03-11T09:01:34.230Z,1.40
2023-03-11T09:03:37.263Z,1.50
2023-03-11T09:05:39.939Z,1.40
2023-03-11T09:07:42.669Z,1.48
2023-03-11T09:09:45.239Z,1.35
2023-03-11T09:11:47.851Z,1.20
2023-03-11T09:13:50.874Z,1.67
2023-03-11T09:15:54.422Z,1.48
2023-03-11T09:17:59.627Z,1.52
2023-03-11T09:20:02.219Z,1.67
2023-03-11T09:22:06.085Z,1.52
2023-03-11T09:24:08.687Z,1.58
2023-03-11T09:26:11.249Z,1.08
2023-03-11T09:28:13.809Z,1.42
2023-03-11T09:30:16.542Z,1.33
2023-03-11T09:32:19.081Z,1.70
2023-03-11T09:34:23.047Z,1.27
2023-03-11T09:36:25.615Z,1.00
2023-03-11T09:38:28.202Z,1.15
2023-03-11T09:40:47.281Z,1.20
2023-03-11T09:42:58.266Z,1.65
2023-03-11T09:45:05.833Z,1.30
2023-03-11T09:47:32.801Z,1.33
2023-03-11T09:49:56.019Z,1.20
2023-03-11T09:52:04.805Z,1.05
2023-03-11T09:54:11.862Z,1.30
2023-03-11T09:56:18.080Z,1.50
2023-03-11T09:58:36.222Z,1.30
2023-03-11T10:00:40.164Z,1.95
2023-03-11T10:02:43.472Z,1.65
2023-03-11T10:04:52.648Z,1.15
2023-03-11T10:06:56.956Z,1.33
2023-03-11T10:09:04.788Z,0.80
2023-03-11T10:11:20.499Z,0.90
2023-03-11T10:13:29.571Z,0.95
2023-03-11T10:15:41.380Z,1.23
2023-03-11T10:19:58.149Z,1.40
2023-03-11T10:22:13.524Z,1.15
2023-03-11T10:24:34.718Z,0.95
2023-03-11T10:26:42.464Z,1.80
2023-03-11T10:28:51.294Z,1.00
2023-03-11T10:30:58.781Z,0.93
2023-03-11T10:33:06.837Z,1.33
2023-03-11T10:35:18.465Z,1.50
2023-03-11T10:37:28.985Z,3.65
2023-03-11T10:39:35.877Z,1.60
2023-03-11T10:41:44.747Z,1.10
2023-03-11T10:43:52.976Z,1.15
2023-03-11T10:45:56.047Z,1.42
2023-03-11T10:47:58.881Z,1.38
2023-03-11T10:50:01.405Z,1.33
2023-03-11T10:52:07.637Z,1.10
2023-03-11T10:54:22.219Z,1.15
2023-03-11T10:56:31.560Z,1.17
2023-03-11T10:58:34.149Z,1.52
2023-03-11T11:00:36.695Z,1.30
2023-03-11T11:02:43.722Z,1.30
2023-03-11T11:04:46.492Z,1.40
2023-03-11T11:06:49.028Z,1.48
2023-03-11T11:09:06.432Z,1.77
2023-03-11T11:11:22.660Z,1.35
2023-03-11T11:13:27.019Z,1.30
2023-03-11T11:15:33.164Z,1.38
2023-03-11T11:17:35.762Z,1.15
2023-03-11T11:19:44.942Z,1.70
2023-03-11T11:21:50.776Z,1.58
2023-03-11T11:24:06.888Z,1.60
2023-03-11T11:26:18.598Z,1.50
2023-03-11T11:28:22.123Z,1.85
2023-03-11T11:30:25.777Z,1.52
2023-03-11T11:32:29.177Z,1.63
2023-03-11T11:34:34.737Z,1.05
2023-03-11T11:36:38.568Z,1.40
2023-03-11T11:38:41.850Z,1.63
2023-03-11T11:40:46.407Z,1.33
2023-03-11T11:42:53.831Z,1.10
2023-03-11T11:45:01.356Z,1.92
2023-03-11T11:47:13.013Z,1.58
2023-03-11T11:49:20.016Z,1.73
2023-03-11T11:51:27.282Z,1.30
2023-03-11T11:53:33.773Z,1.50
2023-03-11T11:55:41.061Z,1.95
2023-03-11T11:57:45.004Z,1.30
2023-03-11T11:59:48.582Z,1.40
2023-03-11T12:02:01.061Z,1.20
2023-03-11T12:04:32.969Z,1.13
2023-03-11T12:06:45.625Z,1.50
2023-03-11T12:09:05.407Z,1.40
2023-03-11T12:11:09.928Z,1.50
2023-03-11T12:13:45.031Z,1.65
2023-03-11T12:15:53.264Z,1.70
2023-03-11T12:18:01.841Z,1.20
2023-03-11T12:20:09.363Z,1.60
2023-03-11T12:22:35.219Z,1.30
2023-03-11T12:24:57.418Z,1.40
2023-03-11T12:27:04.750Z,1.65
2023-03-11T12:29:18.010Z,1.30
2023-03-11T12:31:24.384Z,1.55
2023-03-11T12:33:32.907Z,1.42
2023-03-11T12:35:37.094Z,1.23
2023-03-11T12:37:39.742Z,1.30
2023-03-11T12:39:42.333Z,1.60
2023-03-11T12:41:44.880Z,1.85
2023-03-11T12:44:05.018Z,2.00
2023-03-11T12:46:10.436Z,1.40
2023-03-11T12:48:35.624Z,1.30
2023-03-11T12:50:40.867Z,1.50
2023-03-11T12:53:01.468Z,1.27
2023-03-11T12:55:38.291Z,1.23
2023-03-11T12:57:52.161Z,1.60
2023-03-11T13:00:12.205Z,2.08
2023-03-11T13:02:33.810Z,1.15
2023-03-11T13:04:57.090Z,1.40
2023-03-11T13:07:43.313Z,1.50
2023-03-11T13:09:46.315Z,1.58
2023-03-11T13:11:49.622Z,1.45
2023-03-11T13:13:52.429Z,2.15
2023-03-11T13:15:55.666Z,1.63
2023-03-11T13:18:05.162Z,1.65
2023-03-11T13:20:44.902Z,1.25
2023-03-11T13:23:09.407Z,1.05
2023-03-11T13:25:31.434Z,1.30
2023-03-11T13:29:57.336Z,1.50
2023-03-11T13:32:18.610Z,1.27
2023-03-11T13:34:35.398Z,1.30
2023-03-11T13:36:47.561Z,1.30
2023-03-11T13:39:08.658Z,1.40
2023-03-11T13:41:17.989Z,1.20
2023-03-11T13:43:23.083Z,1.20
2023-03-11T13:45:29.833Z,1.50
2023-03-11T13:47:36.240Z,1.55
2023-03-11T13:49:45.484Z,1.38
2023-03-11T13:51:49.972Z,1.40
2023-03-11T13:53:58.362Z,1.20
2023-03-11T13:56:01.078Z,1.40
2023-03-11T13:58:16.467Z,1.30
2023-03-11T14:00:24.026Z,1.30
2023-03-11T14:02:28.291Z,1.33
2023-03-11T14:04:33.476Z,1.20
2023-03-11T14:06:38.020Z,1.20
2023-03-11T14:08:41.168Z,1.70
2023-03-11T14:10:53.609Z,1.52
2023-03-11T14:13:08.224Z,1.55
2023-03-11T14:15:15.439Z,1.20
2023-03-11T14:17:20.002Z,1.60
2023-03-11T14:19:23.407Z,1.70
2023-03-11T14:21:25.996Z,1.20
2023-03-11T14:23:34.523Z,1.45
2023-03-11T14:25:38.321Z,1.38
2023-03-11T14:27:52.845Z,1.20
2023-03-11T14:29:55.394Z,1.15
2023-03-11T14:31:58.036Z,3.35
2023-03-11T14:34:04.485Z,2.22
2023-03-11T14:36:13.679Z,1.50
2023-03-11T14:38:22.841Z,1.40
2023-03-11T14:40:30.336Z,1.27
2023-03-11T14:42:36.099Z,1.50
2023-03-11T14:44:42.792Z,1.40
2023-03-11T14:46:46.361Z,0.90
2023-03-11T14:48:49.270Z,1.20
2023-03-11T14:50:53.432Z,0.95
2023-03-11T14:53:00.013Z,1.27
2023-03-11T14:55:05.495Z,1.40
2023-03-11T14:57:20.187Z,1.27
2023-03-11T14:59:26.779Z,1.38
2023-03-11T15:01:31.808Z,1.30
2023-03-11T15:03:36.686Z,1.40
2023-03-11T15:05:45.227Z,1.40
2023-03-11T15:07:49.968Z,1.30
2023-03-11T15:09:52.573Z,1.40
2023-03-11T15:11:57.564Z,1.45
2023-03-11T15:14:20.514Z,1.23
2023-03-11T15:16:26.475Z,1.55
2023-03-11T15:18:32.288Z,1.40
2023-03-11T15:20:37.619Z,1.23
2023-03-11T15:22:41.080Z,1.15
2023-03-11T15:24:43.667Z,1.65
2023-03-11T15:26:55.479Z,1.75
2023-03-11T15:31:37.192Z,2.03
2023-03-11T15:33:40.775Z,1.92
2023-03-11T15:35:48.200Z,1.50
2023-03-11T15:37:53.077Z,1.25
2023-03-11T15:39:59.217Z,1.50
2023-03-11T15:42:03.712Z,1.52
2023-03-11T15:44:07.546Z,1.60
2023-03-11T15:46:11.715Z,1.63
2023-03-11T15:48:15.796Z,1.75
2023-03-11T15:50:26.345Z,1.67
2023-03-11T15:52:31.154Z,1.63
2023-03-11T15:54:33.810Z,1.48
2023-03-11T15:56:36.708Z,1.70
2023-03-11T15:58:39.678Z,2.42
2023-03-11T16:00:45.592Z,1.98
2023-03-11T16:02:48.163Z,1.90
2023-03-11T16:04:53.061Z,1.65
2023-03-11T16:07:07.564Z,1.67
2023-03-11T16:09:11.886Z,1.70
2023-03-11T16:11:14.475Z,1.70
2023-03-11T16:13:17.277Z,1.55
2023-03-11T16:15:24.825Z,1.65
2023-03-11T16:17:31.868Z,1.80
2023-03-11T16:19:42.757Z,1.60
2023-03-11T16:21:50.428Z,1.70
2023-03-11T16:23:53.236Z,1.60
2023-03-11T16:25:59.712Z,1.67
2023-03-11T16:28:02.710Z,1.80
2023-03-11T16:30:06.067Z,1.88
2023-03-11T16:32:10.509Z,1.83
2023-03-11T16:34:13.211Z,1.65
2023-03-11T16:36:15.792Z,2.03
2023-03-11T16:38:20.541Z,1.67
2023-03-11T16:40:26.706Z,1.92
2023-03-11T16:42:29.337Z,2.08
2023-03-11T16:44:31.907Z,1.60
2023-03-11T16:46:34.477Z,1.70
2023-03-11T16:48:37.087Z,1.90
2023-03-11T16:50:39.611Z,1.55
2023-03-11T16:52:42.147Z,1.85
2023-03-11T16:54:46.892Z,2.30
2023-03-11T16:56:49.442Z,2.22
2023-03-11T16:58:52.186Z,1.90
2023-03-11T17:00:54.773Z,2.42
2023-03-11T17:02:57.343Z,2.88
2023-03-11T17:05:00.041Z,2.90
2023-03-11T17:07:02.570Z,3.20
2023-03-11T17:09:05.302Z,3.25
2023-03-11T17:11:15.586Z,2.80
2023-03-11T17:13:19.213Z,2.25
2023-03-11T17:15:22.710Z,2.40
2023-03-11T17:17:25.336Z,2.47
2023-03-11T17:19:27.866Z,2.30
2023-03-11T17:21:30.380Z,2.22
2023-03-11T17:23:32.906Z,1.80
2023-03-11T17:25:35.461Z,2.25
2023-03-11T17:27:39.330Z,2.38
2023-03-11T17:29:41.879Z,2.00
2023-03-11T17:31:44.449Z,2.10
2023-03-11T17:33:47.225Z,1.90
2023-03-11T17:35:49.779Z,1.80
2023-03-11T17:37:52.863Z,2.00
2023-03-11T17:39:55.400Z,2.33
2023-03-11T17:41:57.962Z,2.20
2023-03-11T17:44:01.879Z,2.10
2023-03-11T17:46:07.692Z,3.00
2023-03-11T17:48:10.872Z,2.35
2023-03-11T17:50:14.013Z,2.50
2023-03-11T17:52:16.561Z,2.05
2023-03-11T17:54:19.273Z,1.98
2023-03-11T17:56:23.380Z,2.17
2023-03-11T17:58:26.061Z,2.65
2023-03-11T18:00:29.972Z,3.15
2023-03-11T18:02:32.774Z,2.53
2023-03-11T18:04:35.836Z,2.78
2023-03-11T18:06:38.447Z,2.95
2023-03-11T18:08:41.333Z,2.47
2023-03-11T18:10:50.273Z,2.03
2023-03-11T18:12:52.802Z,2.50
2023-03-11T18:14:55.312Z,2.40
2023-03-11T18:17:01.883Z,2.33
2023-03-11T18:19:04.455Z,2.50
2023-03-11T18:21:08.725Z,2.45
2023-03-11T18:23:11.265Z,2.80
2023-03-11T18:25:13.883Z,2.40
2023-03-11T18:27:16.468Z,2.72
2023-03-11T18:29:19.133Z,2.90
2023-03-11T18:31:23.515Z,2.70
2023-03-11T18:33:27.436Z,2.67
2023-03-11T18:35:30.143Z,2.83
2023-03-11T18:37:33.679Z,2.80
2023-03-11T18:39:37.319Z,3.05
2023-03-11T18:41:40.234Z,3.38
2023-03-11T18:43:43.046Z,3.45
2023-03-11T18:45:45.604Z,4.45
2023-03-11T18:47:48.147Z,4.85
2023-03-11T18:49:52.054Z,4.60
2023-03-11T18:51:54.783Z,3.63
2023-03-11T18:53:57.697Z,3.13
2023-03-11T18:56:01.720Z,2.67
2023-03-11T18:58:09.197Z,3.15
2023-03-11T19:00:13.300Z,3.03
2023-03-11T19:02:15.846Z,2.90
2023-03-11T19:04:18.412Z,2.92
2023-03-11T19:06:22.990Z,3.65
2023-03-11T19:08:26.767Z,3.42
2023-03-11T19:10:29.289Z,3.33
2023-03-11T19:12:33.649Z,3.42
2023-03-11T19:14:36.251Z,4.38
2023-03-11T19:16:38.900Z,4.15
2023-03-11T19:18:41.566Z,3.63
2023-03-11T19:20:44.290Z,4.03
2023-03-11T19:22:48.196Z,3.63
2023-03-11T19:24:50.812Z,3.63
2023-03-11T19:26:53.347Z,3.60
2023-03-11T19:28:55.880Z,3.25
2023-03-11T19:30:59.757Z,3.30
2023-03-11T19:33:02.376Z,3.60
2023-03-11T19:35:05.674Z,3.90
2023-03-11T19:37:08.238Z,3.65
2023-03-11T19:39:12.107Z,3.97
2023-03-11T19:41:18.440Z,4.20
2023-03-11T19:43:21.458Z,4.00
2023-03-11T19:45:24.079Z,3.75
2023-03-11T19:47:26.698Z,4.22
2023-03-11T19:49:29.244Z,5.00
2023-03-11T19:51:46.347Z,4.55
2023-03-11T19:53:50.954Z,4.45
2023-03-11T19:55:57.142Z,4.18
2023-03-11T19:57:59.816Z,4.60
2023-03-11T20:00:02.514Z,4.22
2023-03-11T20:02:06.248Z,5.85
2023-03-11T20:04:10.486Z,4.60
2023-03-11T20:06:16.375Z,4.20
2023-03-11T20:08:21.365Z,4.97
2023-03-11T20:10:23.945Z,4.88
2023-03-11T20:12:27.859Z,4.85
2023-03-11T20:14:30.431Z,4.55
2023-03-11T20:16:33.414Z,4.60
2023-03-11T20:18:36.148Z,4.30
2023-03-11T20:20:42.995Z,4.97
2023-03-11T20:22:45.532Z,5.65
2023-03-11T20:24:48.470Z,4.38
2023-03-11T20:26:51.411Z,5.05
2023-03-11T20:28:57.287Z,5.32
2023-03-11T20:30:59.973Z,4.63
2023-03-11T20:33:02.823Z,4.60
2023-03-11T20:35:06.369Z,4.78
2023-03-11T20:37:09.002Z,5.80
2023-03-11T20:39:11.690Z,5.10
2023-03-11T20:41:14.606Z,6.07
2023-03-11T20:43:17.259Z,4.57
2023-03-11T20:45:22.138Z,4.85
2023-03-11T20:47:24.983Z,4.57
2023-03-11T20:49:27.658Z,5.18
2023-03-11T20:51:30.274Z,5.10
2023-03-11T20:53:33.361Z,5.13
2023-03-11T20:55:35.969Z,4.90
2023-03-11T20:57:39.245Z,4.35
2023-03-11T20:59:41.883Z,5.07
2023-03-11T21:01:45.896Z,5.00
2023-03-11T21:03:49.159Z,5.85
2023-03-11T21:05:51.802Z,6.00
2023-03-11T21:07:54.633Z,5.72
2023-03-11T21:09:57.925Z,6.57
2023-03-11T21:12:00.999Z,6.57
2023-03-11T21:14:03.955Z,7.30
2023-03-11T21:16:07.695Z,7.00
2023-03-11T21:18:11.692Z,7.97
2023-03-11T21:20:14.318Z,7.80
2023-03-11T21:22:17.072Z,8.43
2023-03-11T21:24:19.739Z,8.15
2023-03-11T21:26:22.318Z,10.35
2023-03-11T21:28:24.913Z,9.80
2023-03-11T21:30:27.523Z,10.23
2023-03-11T21:32:31.461Z,11.32
2023-03-11T21:34:35.587Z,9.82
2023-03-11T21:36:38.784Z,10.35
2023-03-11T21:38:41.984Z,10.48
2023-03-11T21:40:44.571Z,9.60
2023-03-11T21:42:47.256Z,9.80
2023-03-11T21:44:51.306Z,10.40
2023-03-11T21:46:54.027Z,10.40
2023-03-11T21:48:57.441Z,11.07
2023-03-11T21:51:01.403Z,10.30
2023-03-11T21:53:03.964Z,10.77
2023-03-11T21:55:07.396Z,10.35
2023-03-11T21:57:11.224Z,8.82
2023-03-11T21:59:13.775Z,9.25
2023-03-11T22:01:16.485Z,8.73
2023-03-11T22:03:19.902Z,8.55
2023-03-11T22:05:22.658Z,7.15
2023-03-11T22:07:26.592Z,7.40
2023-03-11T22:09:29.337Z,7.03
2023-03-11T22:11:32.172Z,6.97
2023-03-11T22:13:34.855Z,7.05
2023-03-11T22:15:37.613Z,6.78
2023-03-11T22:17:40.245Z,6.43
2023-03-11T22:19:43.250Z,6.72
2023-03-11T22:21:45.930Z,6.80
2023-03-11T22:23:49.905Z,6.93
2023-03-11T22:25:52.546Z,6.95
2023-03-11T22:27:59.764Z,6.80
2023-03-11T22:30:02.427Z,8.18
2023-03-11T22:32:05.355Z,7.10
2023-03-11T22:34:07.952Z,7.28
2023-03-11T22:36:11.041Z,7.82
2023-03-11T22:38:13.588Z,7.20
2023-03-11T22:40:17.654Z,8.13
2023-03-11T22:42:20.281Z,8.77
2023-03-11T22:44:22.821Z,8.30
2023-03-11T22:46:25.520Z,9.05
2023-03-11T22:48:28.912Z,10.43
2023-03-11T22:50:33.140Z,9.98
2023-03-11T22:52:35.717Z,9.48
2023-03-11T22:54:38.531Z,8.00
2023-03-11T22:56:45.109Z,9.20
2023-03-11T22:58:47.664Z,9.35
2023-03-11T23:00:50.352Z,9.40
2023-03-11T23:02:54.543Z,10.82
2023-03-11T23:04:57.157Z,10.40
2023-03-11T23:06:59.793Z,10.75
2023-03-11T23:09:03.436Z,9.35
2023-03-11T23:11:08.799Z,9.68
2023-03-11T23:13:13.431Z,8.02
2023-03-11T23:15:17.623Z,7.95
2023-03-11T23:17:20.141Z,9.00
2023-03-11T23:19:22.676Z,8.85
2023-03-11T23:21:27.391Z,8.73
2023-03-11T23:23:30.135Z,8.75
2023-03-11T23:25:33.257Z,9.77
2023-03-11T23:27:35.861Z,8.40
2023-03-11T23:29:39.813Z,8.50
2023-03-11T23:31:42.401Z,8.73
2023-03-11T23:33:45.434Z,7.60
2023-03-11T23:35:48.007Z,7.43
2023-03-11T23:37:51.430Z,8.05
2023-03-11T23:39:53.995Z,7.72
2023-03-11T23:41:57.040Z,8.32
2023-03-11T23:43:59.597Z,8.13
2023-03-11T23:46:04.471Z,8.50
2023-03-11T23:48:07.447Z,8.05
2023-03-11T23:50:10.945Z,8.25
2023-03-11T23:52:13.500Z,8.15
2023-03-11T23:54:16.079Z,7.85
2023-03-11T23:56:19.828Z,8.40
2023-03-11T23:58:22.988Z,9.07
